Time;durP1;ratioP1;P1;durP2;ratioP2;P2;SDS_P1;SDS_P2;PMS_P1;PMS_P2;Temp;Humidity;BMP_temperature;BMP_pressure;BME280_temperature;BME280_humidity;BME280_pressure;Samples;Min_cycle;Max_cycle;Signal;HPM_P1;HPM_P2
2022/11/14 00:00:39;;;;;;;8.50;4.30;;;16.00;99.90;;;;;;5076821;28;20339;-81
2022/11/14 00:03:07;;;;;;;7.13;4.13;;;16.00;99.90;;;;;;5076149;28;20039;-81
2022/11/14 00:05:38;;;;;;;6.40;3.88;;;15.90;99.90;;;;;;5076520;28;20353;-81
2022/11/14 00:08:05;;;;;;;5.93;3.80;;;15.90;99.90;;;;;;5075953;28;20035;-81
2022/11/14 00:10:31;;;;;;;5.55;4.05;;;15.90;99.90;;;;;;5075876;28;20555;-80
2022/11/14 00:12:57;;;;;;;6.03;3.95;;;15.90;99.90;;;;;;5076369;28;20082;-81
2022/11/14 00:15:24;;;;;;;6.07;3.23;;;15.90;99.90;;;;;;5076067;28;20321;-81
2022/11/14 00:17:51;;;;;;;5.07;3.50;;;15.90;99.90;;;;;;5093902;28;20032;-80
2022/11/14 00:20:18;;;;;;;5.40;3.65;;;15.90;99.90;;;;;;5093028;28;20409;-80
2022/11/14 00:22:44;;;;;;;5.20;3.70;;;15.90;99.90;;;;;;5058884;28;20625;-81
2022/11/14 00:25:14;;;;;;;6.60;3.20;;;16.00;99.90;;;;;;5094253;28;20490;-80
2022/11/14 00:27:41;;;;;;;4.50;3.17;;;16.00;99.90;;;;;;5094020;28;20391;-81
2022/11/14 00:30:07;;;;;;;;;;;16.10;99.90;;;;;;5094261;28;20016;-81
2022/11/14 00:32:33;;;;;;;4.53;2.80;;;16.20;99.90;;;;;;5075548;28;20423;-81
2022/11/14 00:34:59;;;;;;;8.35;3.05;;;16.30;99.90;;;;;;5076118;28;20091;-81
2022/11/14 00:37:26;;;;;;;6.77;3.20;;;16.40;99.90;;;;;;5093830;28;20111;-81
2022/11/14 00:39:52;;;;;;;5.72;2.90;;;16.30;99.90;;;;;;5094010;28;20137;-81
2022/11/14 00:42:18;;;;;;;5.60;2.87;;;16.40;99.90;;;;;;5093830;28;20024;-82
2022/11/14 00:44:55;;;;;;;;;;;16.30;99.90;;;;;;5094023;28;20024;-81
2022/11/14 00:47:21;;;;;;;5.75;2.35;;;16.30;99.90;;;;;;5094087;28;19950;-81
2022/11/14 00:49:47;;;;;;;8.13;3.33;;;16.40;99.90;;;;;;5093806;28;20032;-81
2022/11/14 00:52:15;;;;;;;;;;;16.40;99.90;;;;;;5092878;28;20301;-80
2022/11/14 00:54:42;;;;;;;4.47;3.00;;;16.40;99.90;;;;;;5090437;28;20292;-81
2022/11/14 00:57:08;;;;;;;7.07;3.35;;;16.40;99.90;;;;;;5093423;28;20536;-81
2022/11/14 00:59:34;;;;;;;8.00;3.10;;;16.30;99.90;;;;;;5093253;28;20107;-81
2022/11/14 01:02:00;;;;;;;7.07;3.03;;;16.30;99.90;;;;;;5093521;28;20016;-80
2022/11/14 01:04:37;;;;;;;4.85;2.63;;;16.40;99.90;;;;;;5093641;28;20043;-80
2022/11/14 01:07:03;;;;;;;4.72;2.50;;;16.40;99.90;;;;;;5091885;28;20036;-75
2022/11/14 01:09:29;;;;;;;5.05;2.72;;;16.50;99.90;;;;;;5093318;28;20452;-81
2022/11/14 01:11:55;;;;;;;7.55;2.92;;;16.60;99.90;;;;;;5093234;28;20028;-81
2022/11/14 01:14:21;;;;;;;4.72;2.45;;;16.60;99.90;;;;;;5093011;28;20024;-81
2022/11/14 01:16:47;;;;;;;8.37;2.83;;;16.60;99.90;;;;;;5093002;28;20046;-81
2022/11/14 01:19:44;;;;;;;4.90;2.73;;;16.60;99.90;;;;;;5092715;28;20337;-81
2022/11/14 01:22:10;;;;;;;10.20;2.95;;;16.60;99.90;;;;;;5092605;28;20059;-79
2022/11/14 01:24:36;;;;;;;6.07;3.53;;;16.60;99.90;;;;;;5093081;28;20029;-81
2022/11/14 01:27:04;;;;;;;13.40;3.30;;;16.50;99.90;;;;;;5093102;28;20110;-81
2022/11/14 01:29:31;;;;;;;4.47;2.72;;;16.40;99.90;;;;;;5092992;28;20505;-81
2022/11/14 01:31:57;;;;;;;5.78;2.72;;;16.40;99.90;;;;;;5092521;28;20557;-81
2022/11/14 01:34:23;;;;;;;5.53;2.90;;;16.40;99.90;;;;;;5093070;28;20028;-81
2022/11/14 01:36:49;;;;;;;5.22;2.80;;;16.40;99.90;;;;;;5092818;28;20460;-81
2022/11/14 01:39:15;;;;;;;9.37;3.17;;;16.40;99.90;;;;;;5092717;28;20111;-81
2022/11/14 01:41:41;;;;;;;6.93;2.47;;;16.50;99.90;;;;;;5073416;28;20277;-80
2022/11/14 01:44:15;;;;;;;7.43;2.22;;;16.40;99.90;;;;;;5092724;28;20480;-80
2022/11/14 01:46:46;;;;;;;6.60;2.78;;;16.30;99.90;;;;;;5092004;28;20438;-80
2022/11/14 01:49:16;;;;;;;13.40;3.10;;;16.20;99.90;;;;;;5092252;28;20468;-80
2022/11/14 01:51:47;;;;;;;13.50;3.00;;;16.10;99.90;;;;;;5092773;28;20475;-80
2022/11/14 01:54:26;;;;;;;13.65;3.50;;;16.00;99.90;;;;;;5092150;28;20554;-80
2022/11/14 01:56:57;;;;;;;10.90;2.90;;;15.90;99.90;;;;;;5092208;28;20024;-80
2022/11/14 01:59:40;;;;;;;14.50;2.88;;;15.90;99.90;;;;;;5092459;28;20405;-80
2022/11/14 02:02:16;;;;;;;25.38;3.42;;;15.90;99.90;;;;;;5092467;28;20025;-80
2022/11/14 02:04:47;;;;;;;18.37;2.70;;;15.60;99.90;;;;;;5074155;28;20444;-80
2022/11/14 02:07:14;;;;;;;9.95;2.75;;;15.50;99.90;;;;;;5056749;28;20274;-80
2022/11/14 02:09:44;;;;;;;14.25;2.35;;;15.40;99.90;;;;;;5092234;28;20039;-80
2022/11/14 02:12:15;;;;;;;15.25;2.40;;;15.20;99.90;;;;;;5091715;28;20044;-80
2022/11/14 02:14:46;;;;;;;14.68;2.10;;;15.20;99.90;;;;;;5091945;28;20039;-80
2022/11/14 02:17:14;;;;;;;9.98;1.70;;;15.10;99.90;;;;;;5091986;28;20032;-80
2022/11/14 02:19:47;;;;;;;8.73;1.60;;;15.00;99.90;;;;;;5091793;28;20092;-80
2022/11/14 02:22:16;;;;;;;8.88;1.50;;;15.00;99.90;;;;;;5073386;28;20378;-80
2022/11/14 02:24:44;;;;;;;6.38;1.58;;;15.00;99.90;;;;;;5091497;28;20036;-80
2022/11/14 02:27:13;;;;;;;7.28;1.30;;;15.00;99.90;;;;;;5091904;28;20020;-81
2022/11/14 02:29:39;;;;;;;3.50;0.95;;;15.00;99.90;;;;;;5091322;28;20028;-80
2022/11/14 02:32:06;;;;;;;3.80;1.20;;;14.90;99.90;;;;;;5091828;28;20383;-79
2022/11/14 02:34:33;;;;;;;4.47;1.30;;;15.00;99.90;;;;;;5091376;28;20258;-80
2022/11/14 02:36:59;;;;;;;3.83;1.10;;;15.00;99.90;;;;;;5091209;28;20028;-80
2022/11/14 02:39:30;;;;;;;5.85;1.35;;;15.00;99.90;;;;;;5073582;28;20024;-74
2022/11/14 02:41:57;;;;;;;3.58;1.15;;;15.00;99.90;;;;;;5091205;28;20111;-80
2022/11/14 02:44:23;;;;;;;;;;;15.10;99.90;;;;;;5073342;28;20329;-80
2022/11/14 02:46:49;;;;;;;4.57;1.20;;;15.10;99.90;;;;;;5072985;28;19915;-80
2022/11/14 02:49:15;;;;;;;2.22;1.00;;;15.00;99.90;;;;;;5091111;28;20064;-80
2022/11/14 02:51:42;;;;;;;2.70;1.30;;;15.10;99.90;;;;;;5091288;28;20084;-80
2022/11/14 02:54:08;;;;;;;3.22;1.10;;;15.10;99.90;;;;;;5091002;28;20292;-79
2022/11/14 02:56:34;;;;;;;4.27;1.33;;;15.10;99.90;;;;;;5072799;28;20039;-79
2022/11/14 02:59:00;;;;;;;2.10;0.97;;;15.10;99.90;;;;;;5091332;28;20265;-80
2022/11/14 03:01:27;;;;;;;4.30;1.10;;;15.10;99.90;;;;;;5091431;28;20274;-80
2022/11/14 03:03:53;;;;;;;2.33;0.95;;;15.20;99.90;;;;;;5091447;28;20031;-79
2022/11/14 03:06:20;;;;;;;3.93;1.30;;;15.10;99.90;;;;;;5091094;28;20024;-75
2022/11/14 03:08:46;;;;;;;2.72;1.25;;;15.20;99.90;;;;;;5094548;28;20062;-80
2022/11/14 03:11:12;;;;;;;2.60;1.23;;;15.40;99.90;;;;;;5089551;28;20111;-79
2022/11/14 03:13:38;;;;;;;2.87;1.27;;;15.40;99.90;;;;;;5094644;28;20202;-77
2022/11/14 03:16:09;;;;;;;2.80;1.17;;;15.30;99.90;;;;;;5098789;28;20038;-77
2022/11/14 03:18:37;;;;;;;4.20;1.42;;;15.30;99.90;;;;;;5065706;28;20098;-79
2022/11/14 03:21:22;;;;;;;4.70;1.45;;;15.30;99.90;;;;;;5080711;28;20067;-79
2022/11/14 03:23:48;;;;;;;3.35;1.30;;;15.20;99.90;;;;;;5081253;28;20024;-77
2022/11/14 03:26:16;;;;;;;4.72;1.33;;;15.20;99.90;;;;;;5082101;28;20035;-80
2022/11/14 03:28:42;;;;;;;4.05;1.60;;;15.20;99.90;;;;;;5082982;28;20040;-76
2022/11/14 03:31:10;;;;;;;3.33;1.40;;;15.30;99.90;;;;;;5083780;28;20400;-80
2022/11/14 03:33:37;;;;;;;2.25;1.25;;;15.30;99.90;;;;;;5091066;28;20031;-81
2022/11/14 03:36:10;;;;;;;2.67;1.20;;;15.40;99.90;;;;;;5074602;28;20028;-80
2022/11/14 03:38:38;;;;;;;2.65;1.17;;;15.40;99.90;;;;;;5084857;28;20108;-76
2022/11/14 03:41:04;;;;;;;4.53;1.33;;;15.50;99.90;;;;;;5081245;28;20102;-75
2022/11/14 03:43:33;;;;;;;6.40;1.20;;;15.50;99.90;;;;;;5078416;28;20025;-78
2022/11/14 03:46:02;;;;;;;2.88;1.10;;;15.50;99.90;;;;;;5086291;28;20066;-79
2022/11/14 03:48:29;;;;;;;2.80;1.20;;;15.50;99.90;;;;;;5086934;28;20028;-80
2022/11/14 03:50:55;;;;;;;;;;;15.50;99.90;;;;;;5090748;28;20059;-79
2022/11/14 03:53:23;;;;;;;2.67;1.20;;;15.50;99.90;;;;;;5090183;28;20395;-81
2022/11/14 03:55:50;;;;;;;3.35;1.08;;;15.50;99.90;;;;;;5090501;28;20122;-79
2022/11/14 03:58:15;;;;;;;;;;;15.40;99.90;;;;;;5091298;28;20024;-79
2022/11/14 04:00:43;;;;;;;3.45;1.10;;;15.40;99.90;;;;;;5090822;28;19915;-79
2022/11/14 04:03:28;;;;;;;3.20;1.02;;;15.50;99.90;;;;;;5073021;28;20024;-79
2022/11/14 04:05:58;;;;;;;3.53;1.20;;;15.50;99.90;;;;;;5092810;28;20154;-79
2022/11/14 04:08:25;;;;;;;4.75;1.23;;;15.50;99.90;;;;;;5094577;28;20321;-79
2022/11/14 04:10:55;;;;;;;4.72;1.20;;;15.50;99.90;;;;;;5094606;28;20035;-79
2022/11/14 04:13:21;;;;;;;4.53;1.23;;;15.50;99.90;;;;;;5094855;28;20050;-80
2022/11/14 04:15:59;;;;;;;2.20;1.30;;;15.60;99.90;;;;;;5094430;28;20025;-81
2022/11/14 04:18:27;;;;;;;3.22;1.20;;;15.60;99.90;;;;;;5094693;28;20078;-80
2022/11/14 04:20:54;;;;;;;5.47;1.42;;;15.50;99.90;;;;;;5076125;28;20887;-79
2022/11/14 04:23:20;;;;;;;6.72;1.77;;;15.30;99.90;;;;;;5094769;28;20495;-80
2022/11/14 04:25:46;;;;;;;4.07;1.67;;;15.10;99.90;;;;;;5094995;28;20035;-79
2022/11/14 04:28:13;;;;;;;4.30;1.50;;;14.90;99.90;;;;;;5095161;28;20020;-80
2022/11/14 04:30:39;;;;;;;3.58;1.55;;;14.90;99.90;;;;;;5076520;28;20048;-80
2022/11/14 04:33:05;;;;;;;7.38;1.80;;;14.80;99.90;;;;;;5095332;28;20130;-80
2022/11/14 04:35:38;;;;;;;4.53;1.43;;;14.70;99.90;;;;;;5095094;28;20032;-80
2022/11/14 04:38:04;;;;;;;3.80;1.45;;;14.80;99.90;;;;;;5094091;28;20334;-80
2022/11/14 04:40:30;;;;;;;3.33;1.55;;;14.70;99.90;;;;;;5076965;28;20476;-80
2022/11/14 04:42:57;;;;;;;3.93;1.30;;;14.60;99.90;;;;;;5095596;28;20023;-80
2022/11/14 04:45:24;;;;;;;2.33;1.40;;;14.60;99.90;;;;;;5095102;28;20055;-80
2022/11/14 04:47:50;;;;;;;4.43;1.67;;;14.60;99.90;;;;;;5094998;28;20035;-80
2022/11/14 04:50:16;;;;;;;3.63;1.63;;;14.60;99.90;;;;;;5094636;28;20031;-80
2022/11/14 04:52:42;;;;;;;4.10;1.52;;;14.70;99.90;;;;;;5076526;28;20051;-80
2022/11/14 04:55:08;;;;;;;2.47;1.33;;;14.80;99.90;;;;;;5094614;28;20464;-80
2022/11/14 04:57:34;;;;;;;4.10;1.93;;;14.80;99.90;;;;;;5094515;28;20111;-80
2022/11/14 05:00:01;;;;;;;4.53;2.03;;;15.00;99.90;;;;;;5076298;28;20269;-79
2022/11/14 05:02:31;;;;;;;3.50;1.90;;;15.00;99.90;;;;;;5094752;28;20371;-80
2022/11/14 05:04:57;;;;;;;4.88;1.80;;;15.10;99.90;;;;;;5093889;28;20468;-79
2022/11/14 05:07:23;;;;;;;6.22;2.10;;;15.10;99.90;;;;;;5094139;28;20463;-79
2022/11/14 05:09:49;;;;;;;5.50;2.03;;;15.10;99.90;;;;;;5094061;28;20467;-75
2022/11/14 05:12:15;;;;;;;3.47;1.93;;;15.00;99.90;;;;;;5094182;28;20040;-79
2022/11/14 05:14:42;;;;;;;;;;;15.10;99.90;;;;;;5094368;28;20533;-80
2022/11/14 05:17:08;;;;;;;4.47;2.33;;;15.00;99.90;;;;;;5093251;28;19908;-80
2022/11/14 05:19:34;;;;;;;6.50;2.17;;;14.90;99.90;;;;;;5094465;28;20066;-79
2022/11/14 05:22:01;;;;;;;5.00;1.97;;;14.90;99.90;;;;;;5094235;28;20121;-78
2022/11/14 05:24:27;;;;;;;6.00;2.20;;;14.90;99.90;;;;;;5094900;28;20028;-79
2022/11/14 05:26:53;;;;;;;5.63;2.45;;;14.90;99.90;;;;;;5076216;28;20024;-80
2022/11/14 05:29:19;;;;;;;4.07;2.10;;;14.90;99.90;;;;;;5094667;28;20084;-79
2022/11/14 05:31:46;;;;;;;4.13;2.00;;;14.90;99.90;;;;;;5075987;28;20070;-80
2022/11/14 05:34:15;;;;;;;;;;;14.90;99.90;;;;;;5094601;28;20261;-80
2022/11/14 05:36:42;;;;;;;3.08;1.90;;;14.90;99.90;;;;;;5094202;28;19916;-80
2022/11/14 05:39:09;;;;;;;3.22;1.90;;;14.90;99.90;;;;;;5094609;28;20020;-80
2022/11/14 05:41:35;;;;;;;;;;;15.00;99.90;;;;;;5094659;28;20028;-80
2022/11/14 05:44:03;;;;;;;3.70;2.30;;;15.00;99.90;;;;;;5094407;28;19908;-80
2022/11/14 05:46:30;;;;;;;3.35;1.77;;;15.00;99.90;;;;;;5094515;28;20464;-80
2022/11/14 05:48:56;;;;;;;;;;;15.00;99.90;;;;;;5094764;28;20024;-80
2022/11/14 05:51:22;;;;;;;4.40;1.70;;;15.00;99.90;;;;;;5093863;28;19923;-80
2022/11/14 05:53:49;;;;;;;6.37;2.13;;;15.00;99.90;;;;;;5094199;28;20078;-80
2022/11/14 05:56:15;;;;;;;3.00;1.50;;;15.10;99.90;;;;;;5075646;28;20118;-80
2022/11/14 05:58:41;;;;;;;2.92;1.63;;;15.10;99.90;;;;;;5094159;28;20046;-79
2022/11/14 06:01:13;;;;;;;3.53;1.58;;;15.10;99.90;;;;;;5093547;28;20028;-78
2022/11/14 06:03:42;;;;;;;4.78;1.73;;;15.10;99.90;;;;;;5075164;28;20024;-80
2022/11/14 06:06:10;;;;;;;5.32;1.92;;;15.10;99.90;;;;;;5093027;28;20026;-79
2022/11/14 06:08:38;;;;;;;3.13;1.63;;;15.10;99.90;;;;;;5093070;28;20107;-76
2022/11/14 06:11:09;;;;;;;4.30;1.83;;;15.10;99.90;;;;;;5092798;28;20070;-76
2022/11/14 06:13:35;;;;;;;5.03;1.85;;;15.20;99.90;;;;;;5093332;28;20380;-76
2022/11/14 06:16:04;;;;;;;4.20;1.80;;;15.20;99.90;;;;;;5093110;28;20049;-76
2022/11/14 06:18:31;;;;;;;4.13;1.58;;;15.20;99.90;;;;;;5093221;28;20035;-76
2022/11/14 06:21:13;;;;;;;2.95;1.50;;;15.10;99.90;;;;;;5092763;28;20039;-76
2022/11/14 06:23:40;;;;;;;3.88;1.90;;;15.10;99.90;;;;;;5092775;28;20036;-76
2022/11/14 06:26:25;;;;;;;3.20;1.50;;;15.10;99.90;;;;;;5083663;28;20013;-77
2022/11/14 06:28:52;;;;;;;5.40;1.70;;;15.20;99.90;;;;;;5080932;28;20115;-75
2022/11/14 06:31:19;;;;;;;4.38;1.55;;;15.20;99.90;;;;;;5080811;28;20028;-77
2022/11/14 06:33:47;;;;;;;3.95;1.50;;;15.30;99.90;;;;;;5082353;28;20449;-77
2022/11/14 06:36:17;;;;;;;3.17;1.55;;;15.40;99.90;;;;;;5081153;28;20025;-76
2022/11/14 06:38:43;;;;;;;3.95;1.73;;;15.40;99.90;;;;;;5084490;28;20028;-76
2022/11/14 06:41:18;;;;;;;5.40;1.67;;;15.50;99.90;;;;;;5091380;28;20035;-77
2022/11/14 06:43:47;;;;;;;3.83;2.00;;;15.40;99.90;;;;;;5091801;28;20020;-77
2022/11/14 06:46:17;;;;;;;3.10;1.80;;;15.40;99.90;;;;;;5091790;28;20032;-76
2022/11/14 06:48:46;;;;;;;3.42;1.88;;;15.40;99.90;;;;;;5091784;28;20133;-77
2022/11/14 06:51:13;;;;;;;6.00;1.85;;;15.30;99.90;;;;;;5091453;28;20236;-78
2022/11/14 06:53:40;;;;;;;4.43;2.20;;;15.40;99.90;;;;;;5091051;28;20056;-78
2022/11/14 06:56:10;;;;;;;5.47;2.10;;;15.40;99.90;;;;;;5088555;28;20024;-77
2022/11/14 06:58:40;;;;;;;4.95;1.85;;;15.40;99.90;;;;;;5080121;28;20131;-75
2022/11/14 07:01:09;;;;;;;4.07;1.70;;;15.40;99.90;;;;;;5070767;28;20460;-77
2022/11/14 07:03:37;;;;;;;3.95;1.60;;;15.50;99.90;;;;;;5052039;28;20028;-77
2022/11/14 07:06:04;;;;;;;5.72;1.85;;;15.70;99.90;;;;;;5071483;28;20028;-77
2022/11/14 07:08:36;;;;;;;4.85;1.92;;;15.90;99.90;;;;;;5070690;28;20025;-77
2022/11/14 07:11:08;;;;;;;3.40;1.75;;;16.00;99.90;;;;;;5070385;28;20041;-78
2022/11/14 07:13:40;;;;;;;5.40;2.03;;;16.10;99.90;;;;;;5070514;28;20130;-77
2022/11/14 07:16:06;;;;;;;4.05;1.85;;;16.10;99.90;;;;;;5070238;28;20502;-76
2022/11/14 07:18:33;;;;;;;3.45;1.90;;;16.20;99.90;;;;;;5071206;28;20118;-77
2022/11/14 07:21:03;;;;;;;4.72;1.70;;;16.30;99.90;;;;;;5070659;28;20376;-78
2022/11/14 07:23:32;;;;;;;3.88;1.70;;;16.40;99.90;;;;;;5071034;28;20095;-80
2022/11/14 07:26:03;;;;;;;6.07;1.65;;;16.50;99.90;;;;;;5070710;28;20028;-79
2022/11/14 07:28:30;;;;;;;2.97;1.35;;;16.50;99.90;;;;;;5070886;28;20012;-77
2022/11/14 07:30:56;;;;;;;6.72;1.70;;;16.60;99.90;;;;;;5053257;28;20051;-78
2022/11/14 07:33:22;;;;;;;3.97;1.67;;;16.80;99.90;;;;;;5071071;28;20031;-78
2022/11/14 07:35:50;;;;;;;4.05;1.40;;;16.90;99.90;;;;;;5053124;28;20036;-76
2022/11/14 07:38:23;;;;;;;3.92;1.30;;;17.20;99.90;;;;;;5071357;28;20031;-78
2022/11/14 07:40:59;;;;;;;2.80;1.45;;;17.40;99.90;;;;;;5073480;28;20029;-76
2022/11/14 07:43:25;;;;;;;;;;;17.50;99.90;;;;;;5075890;28;20032;-77
2022/11/14 07:45:53;;;;;;;4.50;1.27;;;17.60;99.90;;;;;;5056667;28;19908;-78
2022/11/14 07:48:22;;;;;;;3.05;1.30;;;17.80;99.90;;;;;;5074561;28;20020;-78
2022/11/14 07:50:48;;;;;;;4.18;1.60;;;18.00;99.90;;;;;;5074660;28;20040;-76
2022/11/14 07:53:16;;;;;;;3.63;1.55;;;18.20;99.90;;;;;;5074598;28;20020;-76
2022/11/14 07:55:43;;;;;;;6.30;1.60;;;18.10;99.90;;;;;;5074369;28;20029;-75
2022/11/14 07:58:10;;;;;;;3.85;1.92;;;18.00;99.90;;;;;;5074561;28;20547;-77
2022/11/14 08:00:36;;;;;;;7.03;1.58;;;18.00;99.90;;;;;;5074216;28;20440;-78
2022/11/14 08:03:02;;;;;;;3.78;1.30;;;18.00;99.90;;;;;;5074234;28;20025;-77
2022/11/14 08:05:28;;;;;;;4.68;1.30;;;18.10;99.90;;;;;;5074479;28;20044;-79
2022/11/14 08:07:54;;;;;;;4.03;1.45;;;18.20;99.90;;;;;;5074097;28;20039;-69
2022/11/14 08:10:20;;;;;;;2.45;1.30;;;18.30;99.90;;;;;;5074382;28;20487;-69
2022/11/14 08:12:46;;;;;;;3.05;1.30;;;18.40;99.90;;;;;;5074683;28;20075;-69
2022/11/14 08:15:13;;;;;;;3.70;1.40;;;18.40;99.90;;;;;;5074414;28;20021;-69
2022/11/14 08:17:39;;;;;;;;;;;18.30;99.90;;;;;;5074861;28;20346;-69
2022/11/14 08:20:07;;;;;;;4.03;1.35;;;18.40;99.90;;;;;;5074022;28;19949;-70
2022/11/14 08:22:33;;;;;;;5.20;1.30;;;18.60;99.90;;;;;;5055407;28;20512;-70
2022/11/14 08:25:00;;;;;;;4.97;1.48;;;18.70;99.90;;;;;;5074178;28;20024;-70
2022/11/14 08:27:26;;;;;;;3.20;1.10;;;18.80;99.90;;;;;;5073958;28;20077;-81
2022/11/14 08:29:52;;;;;;;7.32;1.10;;;18.50;99.90;;;;;;5074386;28;20360;-81
2022/11/14 08:32:20;;;;;;;5.88;1.15;;;18.60;99.90;;;;;;5074089;28;20062;-79
2022/11/14 08:34:46;;;;;;;1.98;0.93;;;18.50;99.90;;;;;;5074461;28;20031;-78
2022/11/14 08:37:12;;;;;;;2.70;1.20;;;18.60;99.90;;;;;;5073880;28;20081;-77
2022/11/14 08:39:39;;;;;;;2.45;1.10;;;18.80;99.90;;;;;;5073916;28;20029;-79
2022/11/14 08:42:05;;;;;;;4.38;1.15;;;18.80;99.90;;;;;;5074028;28;20051;-79
2022/11/14 08:44:31;;;;;;;2.38;1.30;;;18.80;99.90;;;;;;5073819;28;20406;-78
2022/11/14 08:46:59;;;;;;;3.40;1.27;;;18.90;99.90;;;;;;5073975;28;20369;-77
2022/11/14 08:49:26;;;;;;;3.20;1.20;;;19.00;99.90;;;;;;5073394;28;20025;-78
2022/11/14 08:51:53;;;;;;;3.20;1.33;;;19.10;99.90;;;;;;5055731;28;20071;-78
2022/11/14 08:54:19;;;;;;;5.00;1.40;;;19.30;99.90;;;;;;5055076;28;20063;-77
2022/11/14 08:56:45;;;;;;;;;;;19.70;99.90;;;;;;5073542;28;20480;-77
2022/11/14 08:59:11;;;;;;;3.38;1.40;;;20.00;99.90;;;;;;5078075;28;20359;-77
2022/11/14 09:01:38;;;;;;;3.35;1.10;;;20.30;99.90;;;;;;5093640;28;20384;-78
2022/11/14 09:04:04;;;;;;;4.50;1.33;;;20.50;99.90;;;;;;5093314;28;20020;-78
2022/11/14 09:06:30;;;;;;;3.40;1.30;;;20.70;99.90;;;;;;5093296;28;20039;-77
2022/11/14 09:08:57;;;;;;;5.38;1.30;;;20.80;99.90;;;;;;5092730;28;20020;-77
2022/11/14 09:11:45;;;;;;;3.35;1.20;;;20.90;99.90;;;;;;5092745;28;20120;-77
2022/11/14 09:14:11;;;;;;;4.72;1.10;;;20.90;99.90;;;;;;5092920;28;20568;-76
2022/11/14 09:16:39;;;;;;;5.63;1.58;;;20.90;99.90;;;;;;5093135;28;20035;-77
2022/11/14 09:19:06;;;;;;;5.25;1.50;;;21.20;99.90;;;;;;5092814;28;20398;-78
2022/11/14 09:21:33;;;;;;;3.90;1.58;;;21.30;99.90;;;;;;5092712;28;20132;-76
2022/11/14 09:24:00;;;;;;;8.32;1.40;;;21.10;99.90;;;;;;5093157;28;20020;-78
2022/11/14 09:26:28;;;;;;;6.63;1.58;;;21.10;99.90;;;;;;5092763;28;20057;-77
2022/11/14 09:29:05;;;;;;;4.88;1.20;;;21.00;99.90;;;;;;5096051;28;20065;-77
2022/11/14 09:31:31;;;;;;;3.30;1.30;;;21.10;99.90;;;;;;5074777;28;20422;-77
2022/11/14 09:33:57;;;;;;;2.65;1.10;;;21.00;99.90;;;;;;5093172;28;20085;-79
2022/11/14 09:36:23;;;;;;;4.65;1.23;;;20.80;99.90;;;;;;5074612;28;20062;-78
2022/11/14 09:38:50;;;;;;;3.17;1.15;;;20.40;99.90;;;;;;5092719;28;20032;-78
2022/11/14 09:41:45;;;;;;;3.95;1.05;;;20.40;99.90;;;;;;5093414;28;20020;-73
2022/11/14 09:44:15;;;;;;;;;;;20.50;99.90;;;;;;5090595;28;20039;-76
2022/11/14 09:47:01;;;;;;;5.10;1.23;;;20.10;99.90;;;;;;5091464;28;19931;-79
2022/11/14 09:49:42;;;;;;;2.47;1.10;;;20.30;99.90;;;;;;5074376;28;20066;-78
2022/11/14 09:52:27;;;;;;;2.75;1.10;;;20.50;99.90;;;;;;5092350;28;20075;-78
2022/11/14 09:54:58;;;;;;;5.85;1.20;;;20.70;99.90;;;;;;5092613;28;20104;-78
2022/11/14 09:57:25;;;;;;;5.10;1.50;;;21.10;99.90;;;;;;5091880;28;20155;-78
2022/11/14 09:59:52;;;;;;;6.15;1.48;;;21.00;99.90;;;;;;5091905;28;20046;-77
2022/11/14 10:02:40;;;;;;;5.63;1.20;;;21.20;99.90;;;;;;5091587;28;20334;-78
2022/11/14 10:06:09;;;;;;;5.88;1.50;;;21.00;99.90;;;;;;5091645;28;20457;-79
2022/11/14 10:09:10;;;;;;;5.35;1.85;;;21.10;99.90;;;;;;5082723;28;20357;-79
2022/11/14 10:11:54;;;;;;;4.90;1.30;;;21.40;99.90;;;;;;5040394;28;20062;-79
2022/11/14 10:14:45;;;;;;;8.13;1.67;;;20.90;99.90;;;;;;5112538;28;20591;-79
2022/11/14 10:17:23;;;;;;;3.58;1.13;;;21.00;99.90;;;;;;5075616;28;20028;-80
2022/11/14 10:20:38;;;;;;;10.18;1.23;;;20.90;99.90;;;;;;5091976;28;20024;-80
2022/11/14 10:23:25;;;;;;;8.70;1.55;;;20.50;99.90;;;;;;5036432;28;20053;-80
2022/11/14 10:26:00;;;;;;;7.10;1.45;;;20.90;99.90;;;;;;5053817;28;20630;-78
2022/11/14 10:28:52;;;;;;;5.95;1.73;;;20.90;99.90;;;;;;5071640;28;20040;-78
2022/11/14 10:31:39;;;;;;;5.82;1.40;;;20.90;99.90;;;;;;5071872;28;20068;-79
2022/11/14 10:34:29;;;;;;;7.57;1.63;;;20.80;99.90;;;;;;5071910;28;20091;-75
2022/11/14 10:37:26;;;;;;;7.95;1.45;;;20.80;99.90;;;;;;5057499;28;20033;-74
2022/11/14 10:39:56;;;;;;;6.78;1.17;;;20.90;99.90;;;;;;5051965;28;20021;-78
2022/11/14 10:42:34;;;;;;;5.72;1.50;;;20.70;99.90;;;;;;5050975;28;20082;-78
2022/11/14 10:45:27;;;;;;;7.70;1.92;;;20.40;99.90;;;;;;5051710;28;20035;-79
2022/11/14 10:48:07;;;;;;;6.00;1.80;;;20.70;99.90;;;;;;5051134;28;20088;-79
2022/11/14 10:50:51;;;;;;;4.85;1.45;;;20.90;99.90;;;;;;5032771;28;20445;-79
2022/11/14 10:53:36;;;;;;;6.70;1.65;;;21.20;99.90;;;;;;5051005;28;20029;-79
2022/11/14 10:56:03;;;;;;;7.32;1.63;;;21.40;99.90;;;;;;5049903;28;20119;-77
2022/11/14 10:58:48;;;;;;;7.45;1.60;;;21.50;99.90;;;;;;5050873;28;20445;-79
2022/11/14 11:01:35;;;;;;;7.05;1.77;;;21.60;99.90;;;;;;5033312;28;20036;-77
2022/11/14 11:04:22;;;;;;;11.15;2.65;;;21.70;99.90;;;;;;5050746;28;20021;-79
2022/11/14 11:06:50;;;;;;;8.38;1.95;;;21.80;99.90;;;;;;5050874;28;20021;-79
2022/11/14 11:12:24;;;;;;;11.32;2.03;;;21.70;99.90;;;;;;5050664;28;20052;-78
2022/11/14 11:15:15;;;;;;;11.13;2.13;;;21.80;99.90;;;;;;5034838;28;20067;-75
2022/11/14 11:18:15;;;;;;;6.72;1.50;;;22.00;99.90;;;;;;5055284;28;20025;-79
2022/11/14 11:20:43;;;;;;;7.00;1.90;;;22.20;99.90;;;;;;5050508;28;20477;-78
2022/11/14 11:23:11;;;;;;;6.85;1.45;;;22.30;99.90;;;;;;5056484;28;20056;-74
2022/11/14 11:25:39;;;;;;;6.50;1.40;;;22.40;99.90;;;;;;5075953;28;20025;-77
2022/11/14 11:28:47;;;;;;;7.60;1.83;;;22.30;99.90;;;;;;5075439;28;20528;-79
2022/11/14 11:31:13;;;;;;;6.65;1.52;;;22.30;99.90;;;;;;5075886;28;20039;-80
2022/11/14 11:33:41;;;;;;;4.97;1.90;;;22.00;99.90;;;;;;5057915;28;20032;-80
2022/11/14 11:36:24;;;;;;;14.35;2.50;;;22.00;99.90;;;;;;5075001;28;20021;-80
2022/11/14 11:38:50;;;;;;;7.00;1.85;;;22.10;99.90;;;;;;5075458;28;20016;-80
2022/11/14 11:41:34;;;;;;;6.43;2.13;;;21.90;99.90;;;;;;5075596;28;20032;-78
2022/11/14 11:44:04;;;;;;;7.82;1.60;;;22.10;99.90;;;;;;5076415;28;20113;-82
2022/11/14 11:47:02;;;;;;;7.38;1.52;;;22.30;99.90;;;;;;5075194;28;20024;-82
2022/11/14 11:49:47;;;;;;;8.95;2.00;;;22.20;99.90;;;;;;5075348;28;20051;-81
2022/11/14 11:52:26;;;;;;;9.73;1.90;;;22.20;99.90;;;;;;5075130;28;20423;-80
2022/11/14 11:55:08;;;;;;;11.82;1.67;;;22.50;99.90;;;;;;5075531;28;20536;-77
2022/11/14 11:58:35;;;;;;;11.75;1.90;;;22.70;99.90;;;;;;5074968;28;20031;-81
2022/11/14 12:01:02;;;;;;;12.27;1.67;;;22.90;99.90;;;;;;5007489;28;20046;-78
2022/11/14 12:03:29;;;;;;;10.45;1.80;;;23.20;99.90;;;;;;5011897;28;20426;-81
2022/11/14 12:06:14;;;;;;;14.55;1.85;;;23.30;99.90;;;;;;5011658;28;20053;-79
2022/11/14 12:09:13;;;;;;;5.30;1.50;;;23.30;99.90;;;;;;5013000;28;20028;-79
2022/11/14 12:11:44;;;;;;;5.78;1.83;;;23.40;99.90;;;;;;5012765;28;20460;-79
2022/11/14 12:14:44;;;;;;;10.32;1.98;;;23.50;99.90;;;;;;4995564;28;20495;-79
2022/11/14 12:17:43;;;;;;;9.90;2.25;;;23.50;99.90;;;;;;4995671;28;20548;-79
2022/11/14 12:20:51;;;;;;;5.72;1.80;;;23.50;99.90;;;;;;4992565;28;20050;-79
2022/11/14 12:23:38;;;;;;;11.35;1.80;;;23.40;99.90;;;;;;4992518;28;20185;-79
2022/11/14 12:26:31;;;;;;;8.00;1.60;;;23.40;99.90;;;;;;4976126;28;20068;-80
2022/11/14 12:29:47;;;;;;;11.88;1.80;;;23.60;99.90;;;;;;4980961;28;20025;-80
2022/11/14 12:32:28;;;;;;;8.95;1.95;;;23.60;99.90;;;;;;4964569;28;20054;-79
2022/11/14 12:35:15;;;;;;;7.13;1.90;;;23.40;99.90;;;;;;4972945;28;20050;-78
2022/11/14 12:37:48;;;;;;;9.32;2.00;;;23.30;99.90;;;;;;4973044;28;20061;-75
2022/11/14 12:40:25;;;;;;;9.13;1.80;;;23.10;99.90;;;;;;4972742;28;20038;-79
2022/11/14 12:43:26;;;;;;;8.95;2.03;;;22.90;99.90;;;;;;4973294;28;20031;-79
2022/11/14 12:45:52;;;;;;;11.98;2.13;;;22.80;99.90;;;;;;4973241;28;20534;-78
2022/11/14 12:48:25;;;;;;;6.05;1.52;;;22.80;99.90;;;;;;4973156;28;20075;-78
2022/11/14 12:50:52;;;;;;;11.23;1.83;;;22.70;99.90;;;;;;4972586;28;20043;-78
2022/11/14 12:53:36;;;;;;;7.00;1.77;;;22.50;99.90;;;;;;4972825;28;20150;-78
2022/11/14 12:56:02;;;;;;;9.15;1.95;;;22.30;99.90;;;;;;4973127;28;20137;-78
2022/11/14 12:58:44;;;;;;;9.40;2.03;;;22.30;99.90;;;;;;4973254;28;20101;-77
2022/11/14 13:01:13;;;;;;;8.90;2.00;;;22.30;99.90;;;;;;4973107;28;20034;-75
2022/11/14 13:04:22;;;;;;;5.70;1.50;;;22.50;99.90;;;;;;5072602;28;20123;-74
2022/11/14 13:07:18;;;;;;;10.95;1.98;;;22.60;99.90;;;;;;5094221;28;20368;-76
2022/11/14 13:10:02;;;;;;;7.90;2.30;;;22.70;99.90;;;;;;5075678;28;20028;-76
2022/11/14 13:21:46;;;;;;;7.32;1.70;;;23.30;99.90;;;;;;5095180;28;20066;-77
2022/11/14 13:24:18;;;;;;;8.25;1.73;;;23.50;99.90;;;;;;5088253;28;20052;-76
2022/11/14 13:26:49;;;;;;;13.77;2.03;;;23.50;99.90;;;;;;5094657;28;20077;-76